Check Row, Illinois
Current Conditions -  °F | °C
As of 7:35 AM on Saturday 25 Oct 2014 (Local Time) from KMQB Reporting Station
Moderate Fog Moderate Fog  
Wind Chill: 51°   Ceiling: 200
Heat Index: 51°   Visibility: 0mi
Dew Point: 51°   Wind: 5mph
Humidity: 100%   Direction: 260°W
Pressure: 30.01"   Gusts: NA
Location:  40.6414°N, 90.4243°W
Report Text: KMQB 251235Z AUTO 26004KT M1/4SM FG OVC002 11/11 A3001 RMK AO2 T01050105
Loading
Personal Weather Stations






























Interactive Weather Map
Tropical Storm Tracking
New forecast layout! Learn more

10-Day Weather Forecast

Advertisements
Track Severe Weather on mobile